createdAt,value
2022-09-12T00:00:42.480Z,12.60
2022-09-12T00:03:13.092Z,12.60
2022-09-12T00:05:47.191Z,12.60
2022-09-12T00:08:19.901Z,12.50
2022-09-12T00:10:50.045Z,12.50
2022-09-12T00:13:20.254Z,12.40
2022-09-12T00:15:50.447Z,12.40
2022-09-12T00:18:20.762Z,12.40
2022-09-12T00:20:51.234Z,12.40
2022-09-12T00:23:23.945Z,12.40
2022-09-12T00:25:54.140Z,12.40
2022-09-12T00:28:24.323Z,12.30
2022-09-12T00:30:54.512Z,12.30
2022-09-12T00:33:24.725Z,12.30
2022-09-12T00:35:55.695Z,12.20
2022-09-12T00:38:28.602Z,12.30
2022-09-12T00:40:58.808Z,12.20
2022-09-12T00:43:41.786Z,12.20
2022-09-12T00:46:27.932Z,12.20
2022-09-12T00:49:03.239Z,12.10
2022-09-12T00:51:36.532Z,12.10
2022-09-12T00:54:15.216Z,12.10
2022-09-12T00:56:47.834Z,12.10
2022-09-12T00:59:21.857Z,12.00
2022-09-12T01:01:54.945Z,12.00
2022-09-12T01:04:28.953Z,12.00
2022-09-12T01:07:01.761Z,12.00
2022-09-12T01:09:34.539Z,11.90
2022-09-12T01:12:05.985Z,11.90
2022-09-12T01:14:36.186Z,12.00
2022-09-12T01:17:06.429Z,11.90
2022-09-12T01:20:27.278Z,11.80
2022-09-12T01:23:38.971Z,11.80
2022-09-12T01:26:47.325Z,11.80
2022-09-12T01:29:48.076Z,11.70
2022-09-12T01:32:29.328Z,11.70
2022-09-12T01:35:08.491Z,11.60
2022-09-12T01:37:46.946Z,11.70
2022-09-12T01:40:25.537Z,11.60
2022-09-12T01:43:02.297Z,11.60
2022-09-12T01:45:41.549Z,11.60
2022-09-12T01:48:19.828Z,11.50
2022-09-12T01:50:56.112Z,11.60
2022-09-12T01:53:31.089Z,11.50
2022-09-12T01:56:10.350Z,11.50
2022-09-12T01:58:46.660Z,11.60
2022-09-12T02:01:21.917Z,11.50
2022-09-12T02:04:03.563Z,11.60
2022-09-12T02:06:39.547Z,11.60
2022-09-12T02:09:14.225Z,11.50
2022-09-12T02:11:46.145Z,11.40
2022-09-12T02:14:23.167Z,11.50
2022-09-12T02:16:58.965Z,11.40
2022-09-12T02:19:38.995Z,11.40
2022-09-12T02:22:10.447Z,11.40
2022-09-12T02:24:44.843Z,11.30
2022-09-12T02:27:19.477Z,11.30
2022-09-12T02:29:49.845Z,11.30
2022-09-12T02:32:29.696Z,11.40
2022-09-12T02:35:09.610Z,11.40
2022-09-12T02:37:56.180Z,11.40
2022-09-12T02:40:26.714Z,11.40
2022-09-12T02:42:56.770Z,11.40
2022-09-12T02:45:27.044Z,11.50
2022-09-12T02:48:03.880Z,11.50
2022-09-12T02:50:37.036Z,11.60
2022-09-12T02:53:09.103Z,11.60
2022-09-12T02:55:42.671Z,11.60
2022-09-12T02:58:19.848Z,11.60
2022-09-12T03:01:08.552Z,11.60
2022-09-12T03:04:12.057Z,11.70
2022-09-12T03:06:54.865Z,11.60
2022-09-12T03:09:39.081Z,11.70
2022-09-12T03:12:21.708Z,11.70
2022-09-12T03:15:15.853Z,11.70
2022-09-12T03:18:04.828Z,11.70
2022-09-12T03:20:48.149Z,11.70
2022-09-12T03:23:31.307Z,11.70
2022-09-12T03:26:09.142Z,11.80
2022-09-12T03:28:40.807Z,11.70
2022-09-12T03:31:19.565Z,11.70
2022-09-12T03:33:50.161Z,11.70
2022-09-12T03:36:27.907Z,11.70
2022-09-12T03:39:00.607Z,11.70
2022-09-12T03:41:31.053Z,11.70
2022-09-12T03:44:01.184Z,11.60
2022-09-12T03:46:31.315Z,11.60
2022-09-12T03:49:01.495Z,11.60
2022-09-12T03:51:31.669Z,11.60
2022-09-12T03:54:04.532Z,11.60
2022-09-12T03:56:35.977Z,11.50
2022-09-12T03:59:08.289Z,11.50
2022-09-12T04:01:38.604Z,11.50
2022-09-12T04:04:08.673Z,11.50
2022-09-12T04:06:38.775Z,11.50
2022-09-12T04:09:11.421Z,11.40
2022-09-12T04:11:41.697Z,11.40
2022-09-12T04:14:11.766Z,11.40
2022-09-12T04:16:42.166Z,11.30
2022-09-12T04:19:14.511Z,11.30
2022-09-12T04:21:44.660Z,11.30
2022-09-12T04:24:17.421Z,11.10
2022-09-12T04:26:47.578Z,11.10
2022-09-12T04:29:17.952Z,11.10
2022-09-12T04:31:48.160Z,11.00
2022-09-12T04:34:18.548Z,11.00
2022-09-12T04:36:48.718Z,11.10
2022-09-12T04:39:21.437Z,11.10
2022-09-12T04:41:52.073Z,11.10
2022-09-12T04:44:22.296Z,11.20
2022-09-12T04:46:52.902Z,11.20
2022-09-12T04:49:23.023Z,11.10
2022-09-12T04:51:55.859Z,11.10
2022-09-12T04:54:29.144Z,11.00
2022-09-12T04:57:00.071Z,11.00
2022-09-12T04:59:30.483Z,11.00
2022-09-12T05:02:00.566Z,11.00
2022-09-12T05:04:31.731Z,11.00
2022-09-12T05:07:01.828Z,10.90
2022-09-12T05:09:34.484Z,10.90
2022-09-12T05:12:06.067Z,11.00
2022-09-12T05:14:37.261Z,10.90
2022-09-12T05:17:08.279Z,11.00
2022-09-12T05:19:39.304Z,11.00
2022-09-12T05:22:09.915Z,11.00
2022-09-12T05:24:47.291Z,11.00
2022-09-12T05:27:20.291Z,11.10
2022-09-12T05:29:50.464Z,11.10
2022-09-12T05:32:20.911Z,11.20
2022-09-12T05:34:51.036Z,11.20
2022-09-12T05:37:21.436Z,11.30
2022-09-12T05:39:54.473Z,11.30
2022-09-12T05:42:24.696Z,11.30
2022-09-12T05:44:54.861Z,11.40
2022-09-12T05:47:24.970Z,11.40
2022-09-12T05:49:55.163Z,11.40
2022-09-12T05:52:25.342Z,11.50
2022-09-12T05:54:58.123Z,11.50
2022-09-12T05:57:29.348Z,11.60
2022-09-12T05:59:59.827Z,11.70
2022-09-12T06:02:30.583Z,11.70
2022-09-12T06:05:01.834Z,11.80
2022-09-12T06:07:32.949Z,11.80
2022-09-12T06:10:06.428Z,11.90
2022-09-12T06:12:36.535Z,12.00
2022-09-12T06:15:08.195Z,12.10
2022-09-12T06:17:38.315Z,12.20
2022-09-12T06:20:10.066Z,12.30
2022-09-12T06:22:40.201Z,12.30
2022-09-12T06:25:14.461Z,12.40
2022-09-12T06:27:44.629Z,12.50
2022-09-12T06:30:16.422Z,12.60
2022-09-12T06:32:46.534Z,12.70
2022-09-12T06:35:17.677Z,12.80
2022-09-12T06:37:48.549Z,12.90
2022-09-12T06:40:21.750Z,13.10
2022-09-12T06:42:54.265Z,13.20
2022-09-12T06:45:24.541Z,13.40
2022-09-12T06:47:54.606Z,13.50
2022-09-12T06:50:24.806Z,13.70
2022-09-12T06:52:55.058Z,13.80
2022-09-12T06:55:28.216Z,13.90
2022-09-12T06:57:58.510Z,13.90
2022-09-12T07:00:28.760Z,14.00
2022-09-12T07:02:59.380Z,14.20
2022-09-12T07:05:29.556Z,14.20
2022-09-12T07:07:59.601Z,14.40
2022-09-12T07:10:33.279Z,14.50
2022-09-12T07:13:03.388Z,14.70
2022-09-12T07:15:33.603Z,14.80
2022-09-12T07:18:03.925Z,14.70
2022-09-12T07:20:37.337Z,14.90
2022-09-12T07:23:07.513Z,14.90
2022-09-12T07:25:40.286Z,15.00
2022-09-12T07:28:10.452Z,15.10
2022-09-12T07:30:41.350Z,15.00
2022-09-12T07:33:11.505Z,15.10
2022-09-12T07:35:41.652Z,15.20
2022-09-12T07:38:11.751Z,15.20
2022-09-12T07:40:44.673Z,15.30
2022-09-12T07:43:15.152Z,15.30
2022-09-12T07:45:45.469Z,15.50
2022-09-12T07:48:16.553Z,15.50
2022-09-12T07:50:46.992Z,15.70
2022-09-12T07:53:17.168Z,15.60
2022-09-12T07:55:57.438Z,15.40
2022-09-12T07:58:28.022Z,15.50
2022-09-12T08:00:58.190Z,15.70
2022-09-12T08:03:28.446Z,15.70
2022-09-12T08:05:58.680Z,15.90
2022-09-12T08:08:29.294Z,16.30
2022-09-12T08:11:04.043Z,16.40
2022-09-12T08:13:34.707Z,16.40
2022-09-12T08:16:08.234Z,16.50
2022-09-12T08:18:39.540Z,16.40
2022-09-12T08:21:15.048Z,16.30
2022-09-12T08:23:46.020Z,16.20
2022-09-12T08:26:18.868Z,16.10
2022-09-12T08:28:49.609Z,16.20
2022-09-12T08:31:21.984Z,16.10
2022-09-12T08:33:52.240Z,16.10
2022-09-12T08:36:25.412Z,16.20
2022-09-12T08:39:00.510Z,16.30
2022-09-12T08:41:37.519Z,16.20
2022-09-12T08:44:44.965Z,16.30
2022-09-12T08:47:25.590Z,16.40
2022-09-12T08:50:07.825Z,16.50
2022-09-12T08:52:45.374Z,16.70
2022-09-12T08:55:34.043Z,16.70
2022-09-12T08:58:17.252Z,16.70
2022-09-12T09:00:57.539Z,16.60
2022-09-12T09:03:51.072Z,16.70
2022-09-12T09:06:42.903Z,16.60
2022-09-12T09:09:18.745Z,16.90
2022-09-12T09:12:03.657Z,16.90
2022-09-12T09:15:03.644Z,16.70
2022-09-12T09:17:40.773Z,16.60
2022-09-12T09:20:31.481Z,16.50
2022-09-12T09:23:08.268Z,16.50
2022-09-12T09:25:52.729Z,16.80
2022-09-12T09:28:26.716Z,17.00
2022-09-12T09:31:00.315Z,17.10
2022-09-12T09:33:37.684Z,17.00
2022-09-12T09:36:20.004Z,17.10
2022-09-12T09:38:54.168Z,17.30
2022-09-12T09:41:37.628Z,17.60
2022-09-12T09:47:02.884Z,17.80
2022-09-12T09:49:37.767Z,17.60
2022-09-12T09:52:10.295Z,17.30
2022-09-12T09:54:46.017Z,17.20
2022-09-12T09:57:47.841Z,17.10
2022-09-12T10:00:32.120Z,17.00
2022-09-12T10:03:34.222Z,17.10
2022-09-12T10:06:08.928Z,17.00
2022-09-12T10:08:40.597Z,17.10
2022-09-12T10:11:23.035Z,17.20
2022-09-12T10:14:00.755Z,17.30
2022-09-12T10:16:34.704Z,17.30
2022-09-12T10:19:07.797Z,17.30
2022-09-12T10:21:42.364Z,17.20
2022-09-12T10:24:23.902Z,17.20
2022-09-12T10:26:58.745Z,17.10
2022-09-12T10:29:33.225Z,17.10
2022-09-12T10:32:07.497Z,17.10
2022-09-12T10:34:45.721Z,17.30
2022-09-12T10:37:26.518Z,17.40
2022-09-12T10:39:59.587Z,17.70
2022-09-12T10:42:50.910Z,17.80
2022-09-12T10:45:29.185Z,18.00
2022-09-12T10:48:06.822Z,18.10
2022-09-12T10:50:45.015Z,18.20
2022-09-12T10:53:23.444Z,18.00
2022-09-12T10:56:10.087Z,18.20
2022-09-12T10:58:57.116Z,18.30
2022-09-12T11:01:42.033Z,18.40
2022-09-12T11:04:24.281Z,18.50
2022-09-12T11:07:20.798Z,18.40
2022-09-12T11:10:00.128Z,18.40
2022-09-12T11:12:39.337Z,18.50
2022-09-12T11:15:38.348Z,18.40
2022-09-12T11:18:17.749Z,18.40
2022-09-12T11:21:09.611Z,18.40
2022-09-12T11:24:10.093Z,18.60
2022-09-12T11:26:56.648Z,18.80
2022-09-12T11:29:46.013Z,18.70
2022-09-12T11:33:01.617Z,18.50
2022-09-12T11:35:33.487Z,18.60
2022-09-12T11:38:26.257Z,18.80
2022-09-12T11:41:03.847Z,18.90
2022-09-12T11:43:42.709Z,19.10
2022-09-12T11:46:22.334Z,19.10
2022-09-12T11:48:59.437Z,19.20
2022-09-12T11:51:37.042Z,19.30
2022-09-12T11:54:21.366Z,19.20
2022-09-12T11:57:01.971Z,19.30
2022-09-12T11:59:43.566Z,19.00
2022-09-12T12:02:20.624Z,19.20
2022-09-12T12:05:07.702Z,19.20
2022-09-12T12:07:45.837Z,19.00
2022-09-12T12:10:31.083Z,18.80
2022-09-12T12:13:05.672Z,18.80
2022-09-12T12:15:39.625Z,18.80
2022-09-12T12:18:19.001Z,18.80
2022-09-12T12:20:49.631Z,18.70
2022-09-12T12:23:30.848Z,18.60
2022-09-12T12:26:03.453Z,18.50
2022-09-12T12:29:05.964Z,18.60
2022-09-12T12:32:26.094Z,18.60
2022-09-12T12:35:35.393Z,18.60
2022-09-12T12:38:06.870Z,18.80
2022-09-12T12:40:37.168Z,18.70
2022-09-12T12:43:32.309Z,19.10
2022-09-12T12:46:13.133Z,19.10
2022-09-12T12:49:22.329Z,19.10
2022-09-12T12:52:01.369Z,19.10
2022-09-12T12:54:59.935Z,18.90
2022-09-12T12:57:49.453Z,19.30
2022-09-12T13:00:42.008Z,19.50
2022-09-12T13:03:34.274Z,19.40
2022-09-12T13:06:07.407Z,19.30
2022-09-12T13:08:45.915Z,19.50
2022-09-12T13:11:31.374Z,19.50
2022-09-12T13:14:04.637Z,19.50
2022-09-12T13:16:40.060Z,19.80
2022-09-12T13:19:19.460Z,19.70
2022-09-12T13:21:59.110Z,19.70
2022-09-12T13:24:29.261Z,19.60
2022-09-12T13:27:00.524Z,19.60
2022-09-12T13:29:31.999Z,19.70
2022-09-12T13:32:04.533Z,19.60
2022-09-12T13:34:44.665Z,19.60
2022-09-12T13:37:40.163Z,19.70
2022-09-12T13:40:33.976Z,19.70
2022-09-12T13:43:28.085Z,19.70
2022-09-12T13:45:58.348Z,19.60
2022-09-12T13:48:29.324Z,19.50
2022-09-12T13:51:05.925Z,19.50
2022-09-12T13:53:46.374Z,19.50
2022-09-12T13:56:21.154Z,19.70
2022-09-12T13:58:57.044Z,19.50
2022-09-12T14:01:40.778Z,19.60
2022-09-12T14:04:33.326Z,19.70
2022-09-12T14:07:17.456Z,19.60
2022-09-12T14:09:56.454Z,19.70
2022-09-12T14:12:30.500Z,19.60
2022-09-12T14:15:01.188Z,19.60
2022-09-12T14:17:36.398Z,19.50
2022-09-12T14:20:11.564Z,19.50
2022-09-12T14:22:47.293Z,19.40
2022-09-12T14:25:23.809Z,19.30
2022-09-12T14:27:56.862Z,19.30
2022-09-12T14:30:30.537Z,19.40
2022-09-12T14:33:18.982Z,19.40
2022-09-12T14:35:53.947Z,19.40
2022-09-12T14:38:39.297Z,19.30
2022-09-12T14:41:13.444Z,19.20
2022-09-12T14:43:48.804Z,19.30
2022-09-12T14:46:22.724Z,19.30
2022-09-12T14:48:57.675Z,19.30
2022-09-12T14:51:34.863Z,19.20
2022-09-12T14:54:07.916Z,19.30
2022-09-12T14:56:44.102Z,19.30
2022-09-12T14:59:32.485Z,19.20
2022-09-12T15:02:35.161Z,19.20
2022-09-12T15:05:26.558Z,19.10
2022-09-12T15:08:04.453Z,19.10
2022-09-12T15:10:39.932Z,19.20
2022-09-12T15:13:20.455Z,19.20
2022-09-12T15:15:53.911Z,19.10
2022-09-12T15:18:26.021Z,19.10
2022-09-12T15:21:03.768Z,19.10
2022-09-12T15:23:40.383Z,19.20
2022-09-12T15:26:15.864Z,19.10
2022-09-12T15:28:46.236Z,19.10
2022-09-12T15:31:25.623Z,19.10
2022-09-12T15:33:57.259Z,19.10
2022-09-12T15:36:28.982Z,19.00
2022-09-12T15:38:59.515Z,19.10
2022-09-12T15:41:37.092Z,19.10
2022-09-12T15:44:07.861Z,19.10
2022-09-12T15:46:38.143Z,19.00
2022-09-12T15:49:08.362Z,19.00
2022-09-12T15:51:38.641Z,19.00
2022-09-12T15:54:09.001Z,19.00
2022-09-12T15:56:41.720Z,18.90
2022-09-12T15:59:11.979Z,18.90
2022-09-12T16:01:42.231Z,18.90
2022-09-12T16:04:25.364Z,18.90
2022-09-12T16:06:56.816Z,18.90
2022-09-12T16:09:27.728Z,18.80
2022-09-12T16:12:00.557Z,18.80
2022-09-12T16:14:31.098Z,18.80
2022-09-12T16:17:01.512Z,18.80
2022-09-12T16:19:32.660Z,18.70
2022-09-12T16:22:03.016Z,18.70
2022-09-12T16:24:33.323Z,18.70
2022-09-12T16:27:06.558Z,18.70
2022-09-12T16:29:36.906Z,18.70
2022-09-12T16:32:07.293Z,18.70
2022-09-12T16:34:37.499Z,18.60
2022-09-12T16:37:08.276Z,18.60
2022-09-12T16:39:38.634Z,18.60
2022-09-12T16:42:11.510Z,18.60
2022-09-12T16:44:41.940Z,18.50
2022-09-12T16:47:12.288Z,18.50
2022-09-12T16:49:42.691Z,18.40
2022-09-12T16:52:16.646Z,18.40
2022-09-12T16:54:47.177Z,18.40
2022-09-12T16:57:20.221Z,18.40
2022-09-12T16:59:50.429Z,18.30
2022-09-12T17:02:23.545Z,18.30
2022-09-12T17:04:53.968Z,18.20
2022-09-12T17:07:24.363Z,18.10
2022-09-12T17:09:54.773Z,18.10
2022-09-12T17:12:27.771Z,18.10
2022-09-12T17:14:58.846Z,18.00
2022-09-12T17:17:29.478Z,18.00
2022-09-12T17:19:59.764Z,17.90
2022-09-12T17:22:30.210Z,17.90
2022-09-12T17:25:00.488Z,17.80
2022-09-12T17:27:33.346Z,17.70
2022-09-12T17:30:04.002Z,17.70
2022-09-12T17:32:34.242Z,17.70
2022-09-12T17:35:04.615Z,17.60
2022-09-12T17:37:34.884Z,17.60
2022-09-12T17:40:06.030Z,17.50
2022-09-12T17:42:39.213Z,17.50
2022-09-12T17:45:16.388Z,17.40
2022-09-12T17:47:48.804Z,17.30
2022-09-12T17:50:38.881Z,17.30
2022-09-12T17:53:10.272Z,17.20
2022-09-12T17:55:40.881Z,17.20
2022-09-12T17:58:13.766Z,17.10
2022-09-12T18:00:56.454Z,17.10
2022-09-12T18:03:27.708Z,17.10
2022-09-12T18:05:59.408Z,17.00
2022-09-12T18:08:29.732Z,16.90
2022-09-12T18:11:07.719Z,16.90
2022-09-12T18:13:40.526Z,16.80
2022-09-12T18:16:13.923Z,16.80
2022-09-12T18:18:44.518Z,16.80
2022-09-12T18:21:16.344Z,16.70
2022-09-12T18:23:46.786Z,16.70
2022-09-12T18:26:17.839Z,16.60
2022-09-12T18:28:50.725Z,16.60
2022-09-12T18:31:24.286Z,16.50
2022-09-12T18:33:54.861Z,16.50
2022-09-12T18:36:25.904Z,16.40
2022-09-12T18:38:56.195Z,16.40
2022-09-12T18:41:29.091Z,16.30
2022-09-12T18:44:04.840Z,16.30
2022-09-12T18:46:36.933Z,16.20
2022-09-12T18:49:07.897Z,16.10
2022-09-12T18:51:41.974Z,16.10
2022-09-12T18:54:17.989Z,16.00
2022-09-12T18:56:48.144Z,16.00
2022-09-12T18:59:21.026Z,15.90
2022-09-12T19:01:51.224Z,15.90
2022-09-12T19:04:21.636Z,15.90
2022-09-12T19:06:51.899Z,15.90
2022-09-12T19:09:23.861Z,15.80
2022-09-12T19:11:54.067Z,15.70
2022-09-12T19:14:30.337Z,15.70
2022-09-12T19:17:00.593Z,15.80
2022-09-12T19:19:30.729Z,15.70
2022-09-12T19:22:00.885Z,15.60
2022-09-12T19:24:31.550Z,15.60
2022-09-12T19:27:01.675Z,15.50
2022-09-12T19:29:34.689Z,15.50
2022-09-12T19:32:05.678Z,15.50
2022-09-12T19:34:35.824Z,15.40
2022-09-12T19:37:06.277Z,15.40
2022-09-12T19:39:36.525Z,15.30
2022-09-12T19:42:07.127Z,15.30
2022-09-12T19:44:40.022Z,15.30
2022-09-12T19:47:11.323Z,15.20
2022-09-12T19:49:41.490Z,15.30
2022-09-12T19:52:14.425Z,15.20
2022-09-12T19:54:48.233Z,15.10
2022-09-12T19:57:18.489Z,15.10
2022-09-12T19:59:51.157Z,15.00
2022-09-12T20:02:21.297Z,14.90
2022-09-12T20:04:51.611Z,14.90
2022-09-12T20:07:21.867Z,14.90
2022-09-12T20:09:52.006Z,14.80
2022-09-12T20:12:22.620Z,14.80
2022-09-12T20:14:55.620Z,14.80
2022-09-12T20:17:26.744Z,14.80
2022-09-12T20:19:57.096Z,14.80
2022-09-12T20:22:27.348Z,14.70
2022-09-12T20:24:57.477Z,14.70
2022-09-12T20:27:28.278Z,14.70
2022-09-12T20:30:01.146Z,14.60
2022-09-12T20:32:31.936Z,14.60
2022-09-12T20:35:02.055Z,14.60
2022-09-12T20:37:33.354Z,14.50
2022-09-12T20:40:03.708Z,14.50
2022-09-12T20:42:33.890Z,14.40
2022-09-12T20:45:07.730Z,14.40
2022-09-12T20:47:37.935Z,14.40
2022-09-12T20:50:09.446Z,14.30
2022-09-12T20:52:39.597Z,14.40
2022-09-12T20:55:11.949Z,14.30
2022-09-12T20:57:42.107Z,14.30
2022-09-12T21:00:16.637Z,14.20
2022-09-12T21:02:46.898Z,14.20
2022-09-12T21:05:17.226Z,14.20
2022-09-12T21:07:47.389Z,14.10
2022-09-12T21:10:18.897Z,14.10
2022-09-12T21:12:49.069Z,14.10
2022-09-12T21:15:21.912Z,14.10
2022-09-12T21:17:52.079Z,14.10
2022-09-12T21:20:22.687Z,14.00
2022-09-12T21:22:52.853Z,14.00
2022-09-12T21:25:23.232Z,14.00
2022-09-12T21:27:53.449Z,13.90
2022-09-12T21:30:27.783Z,13.80
2022-09-12T21:32:57.883Z,13.80
2022-09-12T21:35:28.431Z,13.80
2022-09-12T21:37:58.695Z,13.80
2022-09-12T21:40:29.092Z,13.80
2022-09-12T21:42:59.594Z,13.80
2022-09-12T21:45:32.520Z,13.70
2022-09-12T21:48:02.641Z,13.70
2022-09-12T21:50:32.964Z,13.70
2022-09-12T21:53:03.156Z,13.70
2022-09-12T21:55:33.370Z,13.70
2022-09-12T21:58:03.551Z,13.60
2022-09-12T22:00:36.379Z,13.60
2022-09-12T22:03:07.126Z,13.60
2022-09-12T22:05:40.181Z,13.60
2022-09-12T22:08:10.947Z,13.50
2022-09-12T22:10:41.580Z,13.50
2022-09-12T22:13:11.845Z,13.50
2022-09-12T22:15:47.134Z,13.40
2022-09-12T22:18:17.266Z,13.40
2022-09-12T22:20:47.442Z,13.30
2022-09-12T22:23:30.421Z,13.30
2022-09-12T22:26:02.269Z,13.30
2022-09-12T22:28:32.883Z,13.30
2022-09-12T22:31:06.715Z,13.30
2022-09-12T22:33:36.962Z,13.30
2022-09-12T22:36:07.630Z,13.20
2022-09-12T22:38:37.889Z,13.20
2022-09-12T22:41:09.573Z,13.20
2022-09-12T22:43:40.185Z,13.20
2022-09-12T22:46:15.139Z,13.10
2022-09-12T22:48:45.754Z,13.10
2022-09-12T22:51:16.353Z,13.10
2022-09-12T22:53:47.207Z,13.10
2022-09-12T22:56:17.510Z,13.10
2022-09-12T22:58:47.865Z,13.10
2022-09-12T23:01:21.160Z,13.00
2022-09-12T23:03:51.455Z,13.00
2022-09-12T23:06:21.936Z,13.00
2022-09-12T23:08:52.097Z,13.00
2022-09-12T23:11:23.377Z,13.00
2022-09-12T23:13:54.562Z,12.90
2022-09-12T23:16:31.913Z,12.90
2022-09-12T23:19:02.061Z,12.90
2022-09-12T23:21:32.245Z,12.90
2022-09-12T23:24:02.413Z,12.80
2022-09-12T23:26:32.620Z,12.80
2022-09-12T23:29:05.737Z,12.80
2022-09-12T23:31:38.525Z,12.80
2022-09-12T23:34:09.331Z,12.70
2022-09-12T23:36:39.703Z,12.70
2022-09-12T23:39:09.884Z,12.70
2022-09-12T23:41:40.667Z,12.60
2022-09-12T23:44:11.010Z,12.60
2022-09-12T23:46:43.901Z,12.70
2022-09-12T23:49:14.063Z,12.70
2022-09-12T23:51:44.856Z,12.60
2022-09-12T23:54:15.037Z,12.50
2022-09-12T23:56:45.704Z,12.50
2022-09-12T23:59:15.805Z,12.50
